Time;durP1;ratioP1;P1;durP2;ratioP2;P2;SDS_P1;SDS_P2;PMS_P1;PMS_P2;Temp;Humidity;BMP_temperature;BMP_pressure;BME280_temperature;BME280_humidity;BME280_pressure;Samples;Min_cycle;Max_cycle;Signal;HPM_P1;HPM_P2
2021/08/01 00:00:08;;;;;;;11.10;8.70;;;13.80;99.90;;;;;;4937580;29;20054;-73
2021/08/01 00:02:33;;;;;;;9.63;8.63;;;13.80;99.90;;;;;;4954954;29;20469;-79
2021/08/01 00:04:59;;;;;;;11.15;9.98;;;13.80;99.90;;;;;;4954384;29;20039;-76
2021/08/01 00:07:25;;;;;;;12.40;9.82;;;13.80;99.90;;;;;;4937467;29;20027;-74
2021/08/01 00:09:59;;;;;;;11.75;10.32;;;13.80;99.90;;;;;;4955291;28;20473;-76
2021/08/01 00:12:26;;;;;;;11.82;10.63;;;13.90;99.90;;;;;;4968587;28;20081;-83
2021/08/01 00:14:52;;;;;;;11.77;10.60;;;13.80;99.90;;;;;;4959537;28;20090;-77
2021/08/01 00:17:17;;;;;;;11.52;10.43;;;13.80;99.90;;;;;;4958472;29;20449;-74
2021/08/01 00:19:43;;;;;;;11.73;10.52;;;13.80;99.90;;;;;;4957162;29;20024;-75
2021/08/01 00:22:08;;;;;;;11.73;10.40;;;13.80;99.90;;;;;;4956987;29;20513;-74
2021/08/01 00:24:34;;;;;;;15.40;11.43;;;13.80;99.90;;;;;;4957320;29;20031;-79
2021/08/01 00:27:00;;;;;;;12.35;10.88;;;13.80;99.90;;;;;;4961358;28;20033;-75
2021/08/01 00:29:25;;;;;;;12.80;11.50;;;13.80;99.90;;;;;;4953923;29;20027;-82
2021/08/01 00:31:51;;;;;;;12.85;11.52;;;13.70;99.90;;;;;;4957221;29;20023;-74
2021/08/01 00:34:16;;;;;;;13.25;11.38;;;13.70;99.90;;;;;;4961241;28;20019;-73
2021/08/01 00:36:42;;;;;;;12.77;11.35;;;13.70;99.90;;;;;;4958506;29;20035;-73
2021/08/01 00:39:09;;;;;;;14.80;12.38;;;13.70;99.90;;;;;;4958535;29;20030;-74
2021/08/01 00:41:35;;;;;;;14.50;12.88;;;13.70;99.90;;;;;;4957920;29;20102;-74
2021/08/01 00:44:01;;;;;;;14.88;13.27;;;13.70;99.90;;;;;;4958533;29;20059;-72
2021/08/01 00:46:27;;;;;;;19.27;13.02;;;13.70;99.90;;;;;;4957624;29;20482;-74
2021/08/01 00:48:52;;;;;;;15.38;12.93;;;13.70;99.90;;;;;;4958556;29;20110;-75
2021/08/01 00:51:18;;;;;;;14.82;13.00;;;13.60;99.90;;;;;;4958059;29;20519;-73
2021/08/01 00:53:44;;;;;;;14.38;12.88;;;13.70;99.90;;;;;;4957773;29;20036;-76
2021/08/01 00:56:10;;;;;;;14.40;11.80;;;13.60;99.90;;;;;;4958090;29;20485;-73
2021/08/01 00:58:36;;;;;;;16.00;13.27;;;13.60;99.90;;;;;;4958363;29;20037;-74
2021/08/01 01:03:35;;;;;;;16.92;13.50;;;13.60;99.90;;;;;;4958233;29;20035;-74
2021/08/01 01:06:06;;;;;;;15.70;13.10;;;13.70;99.90;;;;;;4958142;29;20046;-73
2021/08/01 01:08:43;;;;;;;15.73;12.45;;;13.60;99.90;;;;;;4957228;29;20449;-75
2021/08/01 01:11:12;;;;;;;15.82;13.02;;;13.60;99.90;;;;;;4957954;29;20395;-74
2021/08/01 01:13:43;;;;;;;16.33;13.00;;;13.60;99.90;;;;;;4940774;29;20032;-74
2021/08/01 01:16:09;;;;;;;15.20;13.70;;;13.60;99.90;;;;;;4957383;29;20027;-74
2021/08/01 01:18:43;;;;;;;15.90;13.10;;;13.60;99.90;;;;;;4957675;29;20394;-74
2021/08/01 01:21:28;;;;;;;15.90;12.88;;;13.60;99.90;;;;;;4957631;29;20027;-73
2021/08/01 01:24:00;;;;;;;15.38;13.82;;;13.60;99.90;;;;;;4940538;29;20472;-73
2021/08/01 01:26:32;;;;;;;17.02;12.68;;;13.60;99.90;;;;;;4940266;29;20609;-73
2021/08/01 01:29:06;;;;;;;;;;;13.60;99.90;;;;;;4957746;29;20027;-74
2021/08/01 01:31:46;;;;;;;14.07;11.48;;;13.60;99.90;;;;;;4940073;29;19912;-73
2021/08/01 01:34:28;;;;;;;15.68;12.82;;;13.60;99.90;;;;;;4957335;29;20034;-73
2021/08/01 01:36:55;;;;;;;15.27;13.60;;;13.60;99.90;;;;;;4957114;29;20035;-74
2021/08/01 01:39:22;;;;;;;16.50;13.90;;;13.60;99.90;;;;;;4957297;29;20425;-73
2021/08/01 01:41:49;;;;;;;14.35;12.65;;;13.60;99.90;;;;;;4940333;29;20073;-74
2021/08/01 01:44:15;;;;;;;14.23;12.73;;;13.60;99.90;;;;;;4956596;29;20031;-74
2021/08/01 01:46:43;;;;;;;23.17;12.88;;;13.60;99.90;;;;;;4940035;29;20031;-74
2021/08/01 01:49:10;;;;;;;15.25;12.88;;;13.60;99.90;;;;;;4939741;29;20015;-77
2021/08/01 01:51:37;;;;;;;14.85;13.02;;;13.60;99.90;;;;;;4956599;29;20079;-73
2021/08/01 01:54:04;;;;;;;19.40;14.00;;;13.60;99.90;;;;;;4957164;29;20427;-74
2021/08/01 01:56:31;;;;;;;14.68;12.35;;;13.50;99.90;;;;;;4956950;29;20031;-76
2021/08/01 01:58:58;;;;;;;15.40;13.80;;;13.50;99.90;;;;;;4956554;29;20027;-73
2021/08/01 02:01:23;;;;;;;16.00;13.13;;;13.50;99.90;;;;;;4956725;29;20484;-73
2021/08/01 02:03:51;;;;;;;17.88;15.25;;;13.50;99.90;;;;;;4939029;29;20167;-73
2021/08/01 02:06:17;;;;;;;16.05;13.32;;;13.60;99.90;;;;;;4939386;29;20034;-73
2021/08/01 02:08:57;;;;;;;16.73;15.02;;;13.60;99.90;;;;;;4956697;29;20023;-73
2021/08/01 02:11:26;;;;;;;18.15;14.43;;;13.50;99.90;;;;;;4955797;29;20035;-73
2021/08/01 02:14:16;;;;;;;16.10;14.48;;;13.60;99.90;;;;;;4957088;29;20015;-73
2021/08/01 02:16:47;;;;;;;20.98;14.82;;;13.60;99.90;;;;;;4939688;29;20074;-74
2021/08/01 02:19:16;;;;;;;16.67;14.98;;;13.60;99.90;;;;;;4939087;29;20023;-73
2021/08/01 02:21:44;;;;;;;17.35;15.52;;;13.50;99.90;;;;;;4939610;29;20031;-73
2021/08/01 02:24:10;;;;;;;18.40;14.65;;;13.50;99.90;;;;;;4956344;29;20020;-73
2021/08/01 02:26:39;;;;;;;17.27;13.73;;;13.50;99.90;;;;;;4955942;29;20439;-73
2021/08/01 02:29:06;;;;;;;16.50;14.75;;;13.50;99.90;;;;;;4939212;29;20019;-76
2021/08/01 02:31:33;;;;;;;16.65;14.07;;;13.50;99.90;;;;;;4938848;29;20456;-79
2021/08/01 02:33:59;;;;;;;16.63;14.88;;;13.60;99.90;;;;;;4955603;28;20490;-74
2021/08/01 02:36:25;;;;;;;26.40;16.27;;;13.50;99.90;;;;;;4938701;29;20031;-73
2021/08/01 02:38:59;;;;;;;18.95;15.15;;;13.60;99.90;;;;;;4955702;29;20027;-74
2021/08/01 02:41:34;;;;;;;17.38;15.57;;;13.60;99.90;;;;;;4955848;29;20034;-79
2021/08/01 02:44:03;;;;;;;18.05;16.27;;;13.60;99.90;;;;;;4939268;29;20109;-74
2021/08/01 02:46:32;;;;;;;17.77;15.98;;;13.60;99.90;;;;;;4955250;29;20027;-73
2021/08/01 02:49:01;;;;;;;19.83;16.20;;;13.70;99.90;;;;;;4956123;29;20035;-72
2021/08/01 02:51:30;;;;;;;18.90;14.02;;;13.80;99.90;;;;;;4955815;29;20055;-73
2021/08/01 02:53:57;;;;;;;16.80;15.05;;;14.00;99.90;;;;;;4938187;29;20502;-73
2021/08/01 02:56:27;;;;;;;17.27;15.63;;;14.10;99.90;;;;;;4954896;29;20027;-76
2021/08/01 02:58:54;;;;;;;17.80;16.00;;;14.20;99.90;;;;;;4955286;29;20023;-74
2021/08/01 03:01:20;;;;;;;17.52;15.77;;;14.30;99.90;;;;;;4936909;29;20051;-77
2021/08/01 03:03:47;;;;;;;16.00;14.45;;;14.30;99.90;;;;;;4954900;29;20086;-73
2021/08/01 03:06:15;;;;;;;19.08;15.05;;;14.40;99.90;;;;;;4954623;29;20390;-73
2021/08/01 03:08:42;;;;;;;22.52;16.30;;;14.50;99.90;;;;;;4954421;29;20123;-76
2021/08/01 03:11:07;;;;;;;19.25;15.60;;;14.50;99.90;;;;;;4937805;29;20027;-74
2021/08/01 03:13:33;;;;;;;18.92;15.65;;;14.60;99.90;;;;;;4954456;29;20023;-75
2021/08/01 03:15:59;;;;;;;22.58;16.05;;;14.60;99.90;;;;;;4936825;29;20023;-74
2021/08/01 03:18:24;;;;;;;21.13;15.40;;;14.60;99.90;;;;;;4937860;29;20030;-74
2021/08/01 03:20:50;;;;;;;17.58;15.20;;;14.70;99.90;;;;;;4937335;29;20027;-73
2021/08/01 03:23:15;;;;;;;18.70;15.07;;;14.70;99.90;;;;;;4936722;29;20153;-77
2021/08/01 03:25:41;;;;;;;19.98;15.73;;;14.80;99.90;;;;;;4955427;29;20087;-74
2021/08/01 03:28:06;;;;;;;18.08;16.13;;;14.80;99.90;;;;;;4954904;29;20372;-74
2021/08/01 03:30:32;;;;;;;19.15;15.45;;;14.80;99.90;;;;;;4954900;29;20028;-74
2021/08/01 03:32:58;;;;;;;20.77;16.50;;;14.90;99.90;;;;;;4955587;29;20503;-74
2021/08/01 03:35:24;;;;;;;18.20;16.35;;;14.90;99.90;;;;;;4954649;29;20031;-74
2021/08/01 03:37:49;;;;;;;16.90;15.20;;;14.90;99.90;;;;;;4938222;29;20476;-73
2021/08/01 03:40:16;;;;;;;22.35;15.80;;;14.90;99.90;;;;;;4937912;29;20487;-74
2021/08/01 03:42:42;;;;;;;16.80;14.75;;;14.90;99.90;;;;;;4954624;29;20065;-73
2021/08/01 03:45:11;;;;;;;16.02;14.48;;;15.00;99.90;;;;;;4954495;28;20039;-73
2021/08/01 03:47:38;;;;;;;17.42;15.52;;;15.00;99.90;;;;;;4955488;29;20030;-73
2021/08/01 03:50:04;;;;;;;18.52;15.18;;;15.00;99.90;;;;;;4954487;29;20058;-74
2021/08/01 03:52:30;;;;;;;16.45;14.80;;;15.00;99.90;;;;;;4937617;29;20019;-74
2021/08/01 03:54:55;;;;;;;16.98;15.43;;;15.00;99.90;;;;;;4955194;29;20034;-74
2021/08/01 03:57:21;;;;;;;17.02;15.27;;;15.00;99.90;;;;;;4954409;29;20019;-73
2021/08/01 03:59:46;;;;;;;18.75;15.27;;;15.10;99.90;;;;;;4954827;29;20480;-74
2021/08/01 04:02:15;;;;;;;16.88;14.00;;;15.00;99.90;;;;;;4954873;29;20031;-73
2021/08/01 04:04:41;;;;;;;17.77;15.98;;;15.00;99.90;;;;;;4954339;29;20027;-74
2021/08/01 04:07:06;;;;;;;17.33;15.63;;;15.00;99.90;;;;;;4937675;29;20027;-75
2021/08/01 04:09:32;;;;;;;16.55;14.98;;;15.00;99.90;;;;;;4937811;29;20118;-75
2021/08/01 04:11:57;;;;;;;19.00;15.38;;;15.00;99.90;;;;;;4956157;28;20031;-74
2021/08/01 04:14:25;;;;;;;19.13;14.60;;;15.00;99.90;;;;;;4953418;29;20031;-73
2021/08/01 04:16:51;;;;;;;16.63;14.77;;;15.00;99.90;;;;;;4966606;28;20077;-73
2021/08/01 04:19:17;;;;;;;20.38;14.57;;;15.00;99.90;;;;;;4954222;29;20027;-79
2021/08/01 04:21:44;;;;;;;15.30;13.82;;;15.10;99.90;;;;;;4942067;29;20038;-74
2021/08/01 04:24:11;;;;;;;19.23;13.82;;;15.10;99.90;;;;;;4954934;29;20027;-74
2021/08/01 04:26:38;;;;;;;21.30;14.95;;;15.10;99.90;;;;;;4917869;29;20040;-73
2021/08/01 04:29:05;;;;;;;15.77;14.13;;;15.10;99.90;;;;;;4918886;29;20354;-76
2021/08/01 04:31:30;;;;;;;15.30;13.73;;;15.10;99.90;;;;;;4917778;29;20512;-73
2021/08/01 04:33:56;;;;;;;15.75;13.48;;;15.20;99.90;;;;;;4935840;29;20104;-74
2021/08/01 04:36:22;;;;;;;17.92;14.43;;;15.20;99.90;;;;;;4935256;29;20071;-75
2021/08/01 04:38:47;;;;;;;16.38;13.80;;;15.30;99.90;;;;;;4935187;29;20038;-73
2021/08/01 04:41:13;;;;;;;16.67;14.85;;;15.30;99.90;;;;;;4935318;29;20090;-73
2021/08/01 04:43:38;;;;;;;14.70;13.25;;;15.30;99.90;;;;;;4935616;29;20035;-74
2021/08/01 04:46:04;;;;;;;15.13;13.63;;;15.40;99.90;;;;;;4933735;29;20404;-73
2021/08/01 04:48:30;;;;;;;16.58;13.25;;;15.40;99.90;;;;;;4935242;29;20551;-74
2021/08/01 04:50:56;;;;;;;20.10;14.48;;;15.40;99.90;;;;;;4935689;29;20032;-73
2021/08/01 04:53:21;;;;;;;15.27;13.25;;;15.50;99.90;;;;;;4934876;29;20023;-73
2021/08/01 04:55:47;;;;;;;17.17;13.57;;;15.50;99.90;;;;;;4918310;29;20027;-74
2021/08/01 04:58:12;;;;;;;18.90;14.02;;;15.50;99.90;;;;;;4938096;29;20031;-73
2021/08/01 05:00:38;;;;;;;17.63;13.13;;;15.60;99.90;;;;;;4938461;29;20106;-73
2021/08/01 05:03:04;;;;;;;21.17;13.93;;;15.60;99.90;;;;;;4939002;29;20492;-73
2021/08/01 05:05:38;;;;;;;16.95;12.88;;;15.60;99.90;;;;;;4938597;29;20036;-73
2021/08/01 05:08:04;;;;;;;15.60;13.45;;;15.70;99.90;;;;;;4938524;29;20499;-73
2021/08/01 05:10:30;;;;;;;15.35;13.10;;;15.70;99.90;;;;;;4937237;29;20366;-78
2021/08/01 05:12:56;;;;;;;18.05;13.52;;;15.70;99.90;;;;;;4921655;29;20388;-74
2021/08/01 05:15:22;;;;;;;15.70;13.25;;;15.80;99.90;;;;;;4920888;29;20032;-74
2021/08/01 05:17:48;;;;;;;20.17;14.00;;;15.80;99.90;;;;;;4937890;29;20391;-74
2021/08/01 05:20:14;;;;;;;18.83;14.95;;;15.90;99.90;;;;;;4938474;29;20059;-74
2021/08/01 05:22:40;;;;;;;22.73;15.27;;;15.90;99.90;;;;;;4938370;29;20042;-74
2021/08/01 05:25:06;;;;;;;20.85;14.90;;;16.00;99.90;;;;;;4937212;29;20043;-74
2021/08/01 05:27:32;;;;;;;18.40;15.18;;;16.00;99.90;;;;;;4920765;29;20137;-80
2021/08/01 05:29:58;;;;;;;19.65;15.60;;;16.10;99.90;;;;;;4937103;29;20028;-73
2021/08/01 05:32:23;;;;;;;20.02;15.68;;;16.20;99.90;;;;;;4938216;29;20091;-79
2021/08/01 05:34:49;;;;;;;22.52;17.70;;;16.20;99.90;;;;;;4937915;29;20449;-73
2021/08/01 05:37:14;;;;;;;19.70;16.02;;;16.20;99.90;;;;;;4938199;29;20038;-73
2021/08/01 05:39:40;;;;;;;21.30;17.45;;;16.30;99.90;;;;;;4938207;29;20024;-73
2021/08/01 05:42:06;;;;;;;19.98;16.02;;;16.30;99.90;;;;;;4937893;29;20040;-73
2021/08/01 05:44:33;;;;;;;24.30;17.55;;;16.40;99.90;;;;;;4937730;29;20051;-73
2021/08/01 05:46:59;;;;;;;26.67;19.02;;;16.40;99.90;;;;;;4938103;29;20039;-76
2021/08/01 05:49:24;;;;;;;22.05;18.50;;;16.40;99.90;;;;;;4937354;29;20032;-73
2021/08/01 05:51:50;;;;;;;21.33;18.98;;;16.40;99.90;;;;;;4938011;29;20079;-74
2021/08/01 05:54:15;;;;;;;24.83;18.90;;;16.50;99.90;;;;;;4936576;29;20122;-73
2021/08/01 05:56:41;;;;;;;26.45;20.15;;;16.50;99.90;;;;;;4937569;29;20023;-73
2021/08/01 05:59:07;;;;;;;22.58;19.98;;;16.60;99.90;;;;;;4937893;29;20047;-73
2021/08/01 06:01:32;;;;;;;27.02;19.95;;;16.60;99.90;;;;;;4936617;29;20457;-73
2021/08/01 06:03:57;;;;;;;25.95;20.65;;;16.60;99.90;;;;;;4935969;29;20051;-74
2021/08/01 06:06:23;;;;;;;30.92;19.50;;;16.60;99.90;;;;;;4920166;29;20039;-74
2021/08/01 06:08:53;;;;;;;26.05;21.67;;;16.60;99.90;;;;;;4919931;29;20043;-74
2021/08/01 06:11:21;;;;;;;30.42;22.73;;;16.70;99.90;;;;;;4936543;29;20030;-74
2021/08/01 06:13:47;;;;;;;33.20;22.13;;;16.70;99.90;;;;;;4937749;29;20028;-73
2021/08/01 06:16:14;;;;;;;28.92;21.73;;;16.80;99.90;;;;;;4937341;29;20023;-74
2021/08/01 06:18:41;;;;;;;29.75;21.23;;;16.80;99.90;;;;;;4920039;29;20024;-81
2021/08/01 06:21:09;;;;;;;26.88;21.85;;;16.90;99.90;;;;;;4937462;29;20396;-75
2021/08/01 06:23:36;;;;;;;27.77;22.88;;;16.90;99.90;;;;;;4937010;29;20032;-73
2021/08/01 06:26:01;;;;;;;31.50;24.38;;;16.90;99.90;;;;;;4936718;29;20043;-74
2021/08/01 06:28:27;;;;;;;29.85;23.20;;;16.90;99.90;;;;;;4937124;29;20026;-74
2021/08/01 06:30:53;;;;;;;32.15;24.45;;;16.90;99.90;;;;;;4936576;29;20027;-80
2021/08/01 06:33:18;;;;;;;38.47;23.83;;;16.90;99.90;;;;;;4936964;29;20429;-74
2021/08/01 06:35:44;;;;;;;29.33;24.10;;;17.00;99.90;;;;;;4937486;29;20034;-74
2021/08/01 06:38:10;;;;;;;33.10;24.90;;;17.00;99.90;;;;;;4936722;29;20735;-74
2021/08/01 06:40:36;;;;;;;33.00;23.30;;;17.00;99.90;;;;;;4937050;29;20028;-74
2021/08/01 06:43:02;;;;;;;31.88;25.80;;;17.00;99.90;;;;;;4937217;29;20019;-77
2021/08/01 06:45:27;;;;;;;30.98;25.13;;;17.00;99.90;;;;;;4936102;29;20040;-74
2021/08/01 06:47:53;;;;;;;31.33;25.33;;;17.00;99.90;;;;;;4937248;29;20032;-74
2021/08/01 06:50:20;;;;;;;30.58;23.73;;;16.90;99.90;;;;;;4936574;29;20028;-73
2021/08/01 06:52:46;;;;;;;29.77;23.77;;;16.90;99.90;;;;;;4936484;29;20524;-74
2021/08/01 06:55:12;;;;;;;26.05;22.58;;;16.80;99.90;;;;;;4936279;29;20102;-73
2021/08/01 06:57:38;;;;;;;27.67;22.58;;;17.00;99.90;;;;;;4935971;29;20062;-75
2021/08/01 07:00:05;;;;;;;26.60;22.88;;;17.10;99.90;;;;;;4946601;28;20530;-73
2021/08/01 07:02:30;;;;;;;31.42;24.45;;;17.20;99.90;;;;;;4953334;29;20439;-81
2021/08/01 07:04:57;;;;;;;30.73;23.67;;;17.20;99.90;;;;;;4941211;29;20039;-73
2021/08/01 07:07:23;;;;;;;29.23;23.27;;;17.20;99.90;;;;;;4952951;28;20034;-75
2021/08/01 07:09:48;;;;;;;33.85;24.15;;;17.20;99.90;;;;;;4941816;29;20400;-73
2021/08/01 07:12:15;;;;;;;31.80;24.73;;;17.20;99.90;;;;;;4954833;29;20408;-73
2021/08/01 07:14:40;;;;;;;34.33;26.20;;;17.20;99.90;;;;;;4954352;29;20034;-73
2021/08/01 07:17:06;;;;;;;33.08;24.48;;;17.20;99.90;;;;;;4955485;29;20027;-73
2021/08/01 07:19:31;;;;;;;35.17;24.65;;;17.20;99.90;;;;;;4937962;28;20019;-73
2021/08/01 07:21:57;;;;;;;30.75;22.75;;;17.20;99.90;;;;;;4954768;29;20027;-73
2021/08/01 07:24:22;;;;;;;33.47;26.02;;;17.20;99.90;;;;;;4955160;29;20106;-76
2021/08/01 07:26:48;;;;;;;33.25;25.27;;;17.20;99.90;;;;;;4955699;29;20031;-84
2021/08/01 07:29:14;;;;;;;33.63;24.58;;;17.10;99.90;;;;;;4937232;29;20016;-75
2021/08/01 07:31:40;;;;;;;31.38;25.35;;;17.10;99.90;;;;;;4955480;29;20027;-74
2021/08/01 07:34:05;;;;;;;32.08;25.40;;;17.10;99.90;;;;;;4955405;29;20050;-74
2021/08/01 07:36:32;;;;;;;36.72;25.73;;;17.10;99.90;;;;;;4954436;29;20027;-71
2021/08/01 07:38:58;;;;;;;36.33;27.00;;;17.00;99.90;;;;;;4956132;28;20025;-76
2021/08/01 07:41:25;;;;;;;35.65;25.42;;;17.00;99.90;;;;;;4964762;28;20446;-86
2021/08/01 07:43:51;;;;;;;35.60;26.30;;;17.00;99.90;;;;;;4956980;28;20026;-75
2021/08/01 07:46:22;;;;;;;37.63;25.85;;;17.00;99.90;;;;;;4947100;29;20130;-82
2021/08/01 07:48:47;;;;;;;38.83;28.95;;;17.00;99.90;;;;;;4936634;29;20082;-70
2021/08/01 07:51:13;;;;;;;35.22;26.98;;;17.10;99.90;;;;;;4937639;29;20027;-83
2021/08/01 07:53:39;;;;;;;39.30;28.35;;;17.10;99.90;;;;;;4938147;29;20034;-76
2021/08/01 07:56:04;;;;;;;37.53;26.33;;;17.00;99.90;;;;;;4954537;28;20031;-72
2021/08/01 07:58:30;;;;;;;40.30;27.60;;;17.00;99.90;;;;;;4938149;29;20377;-73
2021/08/01 08:00:56;;;;;;;33.90;27.27;;;17.00;99.90;;;;;;4969600;28;20515;-73
2021/08/01 08:03:21;;;;;;;33.95;26.00;;;17.00;99.90;;;;;;4957509;28;20068;-74
2021/08/01 08:05:47;;;;;;;37.42;27.65;;;17.00;99.90;;;;;;4955819;28;20066;-73
2021/08/01 08:08:13;;;;;;;40.40;27.20;;;17.10;99.90;;;;;;4954805;29;20071;-73
2021/08/01 08:10:38;;;;;;;42.60;30.30;;;17.00;99.90;;;;;;4953194;29;20031;-73
2021/08/01 08:13:04;;;;;;;36.42;26.73;;;17.10;99.90;;;;;;4954780;29;20059;-73
2021/08/01 08:15:29;;;;;;;38.08;28.00;;;17.20;99.90;;;;;;4954529;29;20030;-73
2021/08/01 08:17:55;;;;;;;39.22;26.90;;;17.20;99.90;;;;;;4954435;29;20097;-73
2021/08/01 08:20:20;;;;;;;43.42;26.73;;;17.30;99.90;;;;;;4954562;29;20027;-74
2021/08/01 08:22:46;;;;;;;44.38;28.70;;;17.40;99.90;;;;;;4955559;29;20028;-73
2021/08/01 08:25:12;;;;;;;44.60;30.17;;;17.40;99.90;;;;;;4953955;29;20027;-74
2021/08/01 08:27:37;;;;;;;41.17;27.80;;;17.50;99.90;;;;;;4954968;29;20031;-73
2021/08/01 08:30:06;;;;;;;48.47;31.13;;;17.50;99.90;;;;;;4954844;29;20024;-73
2021/08/01 08:32:33;;;;;;;40.90;29.15;;;17.50;99.90;;;;;;4938653;29;20038;-74
2021/08/01 08:34:59;;;;;;;46.50;32.30;;;17.50;99.90;;;;;;4958737;29;20082;-73
2021/08/01 08:37:24;;;;;;;45.85;32.83;;;17.50;99.90;;;;;;4956911;29;20110;-73
2021/08/01 08:39:50;;;;;;;44.40;31.40;;;17.60;99.90;;;;;;4958267;29;20054;-73
2021/08/01 08:42:16;;;;;;;46.22;31.48;;;17.60;99.90;;;;;;4958150;29;20423;-73
2021/08/01 08:44:41;;;;;;;41.72;29.92;;;17.60;99.90;;;;;;4957592;29;20028;-73
2021/08/01 08:47:08;;;;;;;49.17;33.55;;;17.60;99.90;;;;;;4958359;29;20067;-73
2021/08/01 08:49:36;;;;;;;43.15;31.17;;;17.70;99.90;;;;;;4957693;29;20391;-73
2021/08/01 08:52:06;;;;;;;43.78;31.15;;;17.70;99.90;;;;;;4957767;29;20023;-74
2021/08/01 08:54:46;;;;;;;46.30;31.85;;;17.80;99.90;;;;;;4958201;29;20476;-73
2021/08/01 08:57:22;;;;;;;40.53;29.77;;;17.80;99.90;;;;;;4958341;29;20030;-76
2021/08/01 08:59:59;;;;;;;41.13;30.15;;;17.90;99.90;;;;;;4956071;28;20023;-76
2021/08/01 09:02:25;;;;;;;43.03;31.13;;;17.90;99.90;;;;;;4957878;29;20083;-73
2021/08/01 09:04:50;;;;;;;43.95;30.58;;;17.90;99.90;;;;;;4957978;29;20058;-73
2021/08/01 09:07:16;;;;;;;43.30;32.60;;;17.90;99.90;;;;;;4956911;29;20514;-74
2021/08/01 09:09:42;;;;;;;39.65;28.98;;;18.10;99.90;;;;;;4956785;28;20022;-74
2021/08/01 09:12:07;;;;;;;38.67;29.15;;;18.20;99.90;;;;;;4957726;29;20031;-74
2021/08/01 09:14:33;;;;;;;44.33;29.23;;;18.30;99.90;;;;;;4957060;29;20469;-72
2021/08/01 09:16:58;;;;;;;39.60;29.52;;;18.40;99.90;;;;;;4957688;29;20066;-75
2021/08/01 09:19:27;;;;;;;40.40;30.65;;;18.50;99.90;;;;;;4957530;29;20024;-74
2021/08/01 09:21:53;;;;;;;43.30;29.20;;;18.50;99.90;;;;;;4957366;29;20027;-74
2021/08/01 09:24:19;;;;;;;42.92;29.83;;;18.60;99.90;;;;;;4957627;29;20047;-74
2021/08/01 09:26:47;;;;;;;41.75;31.17;;;18.70;99.90;;;;;;4956819;29;20544;-74
2021/08/01 09:29:14;;;;;;;37.95;29.08;;;18.70;99.90;;;;;;4940055;29;20019;-75
2021/08/01 09:31:41;;;;;;;36.47;27.92;;;18.60;99.90;;;;;;4940380;29;20118;-73
2021/08/01 09:34:25;;;;;;;36.95;28.65;;;18.60;99.90;;;;;;4956904;29;20384;-75
2021/08/01 09:37:03;;;;;;;43.70;29.38;;;18.80;99.90;;;;;;4957641;29;20016;-73
2021/08/01 09:39:36;;;;;;;42.13;29.80;;;18.80;99.90;;;;;;4957076;29;20047;-76
2021/08/01 09:42:06;;;;;;;39.42;28.92;;;18.80;99.90;;;;;;4939520;29;20531;-75
2021/08/01 09:44:35;;;;;;;39.85;28.30;;;19.00;99.90;;;;;;4954508;28;20069;-73
2021/08/01 09:47:00;;;;;;;41.35;29.20;;;19.10;99.90;;;;;;4955938;29;20487;-73
2021/08/01 09:49:31;;;;;;;37.83;28.08;;;19.20;99.90;;;;;;4956550;29;20157;-77
2021/08/01 09:51:59;;;;;;;37.33;28.25;;;19.60;99.90;;;;;;4939957;29;20484;-73
2021/08/01 09:54:26;;;;;;;35.88;27.23;;;20.10;99.90;;;;;;4956897;29;20030;-73
2021/08/01 09:56:59;;;;;;;38.85;28.35;;;20.50;99.90;;;;;;4956418;29;20042;-73
2021/08/01 09:59:27;;;;;;;36.35;26.50;;;20.80;99.90;;;;;;4939927;29;20383;-74
2021/08/01 10:01:55;;;;;;;35.50;25.95;;;21.00;99.90;;;;;;4956172;29;20043;-73
2021/08/01 10:04:27;;;;;;;32.13;26.00;;;21.20;99.90;;;;;;4939473;29;20023;-73
2021/08/01 10:07:12;;;;;;;34.47;26.42;;;21.30;99.90;;;;;;4939853;29;20048;-74
2021/08/01 10:09:49;;;;;;;31.65;25.67;;;21.40;99.90;;;;;;4956440;29;20023;-74
2021/08/01 10:12:15;;;;;;;33.78;24.67;;;21.50;99.90;;;;;;4944379;28;20058;-75
2021/08/01 10:14:44;;;;;;;27.63;23.67;;;21.50;99.90;;;;;;4958657;28;20488;-74
2021/08/01 10:17:09;;;;;;;28.15;23.38;;;21.70;99.90;;;;;;4958292;28;20169;-75
2021/08/01 10:19:36;;;;;;;32.20;24.63;;;21.70;99.90;;;;;;4975676;28;20519;-74
2021/08/01 10:22:04;;;;;;;29.50;23.98;;;21.60;99.90;;;;;;4957262;28;20026;-74
2021/08/01 10:24:33;;;;;;;32.65;23.92;;;21.70;99.90;;;;;;4974823;28;20029;-74
2021/08/01 10:27:07;;;;;;;26.90;22.30;;;21.90;99.90;;;;;;4958236;28;20050;-74
2021/08/01 10:29:45;;;;;;;28.80;21.98;;;22.20;99.90;;;;;;4963530;28;20023;-75
2021/08/01 10:32:12;;;;;;;29.67;23.45;;;22.30;99.90;;;;;;4951784;29;20050;-75
2021/08/01 10:34:45;;;;;;;31.65;23.77;;;22.30;99.90;;;;;;4934333;29;20027;-75
2021/08/01 10:37:31;;;;;;;28.33;22.73;;;22.30;99.90;;;;;;4937460;29;20027;-73
2021/08/01 10:39:58;;;;;;;31.50;23.33;;;22.10;99.90;;;;;;4938862;29;20425;-74
2021/08/01 10:42:27;;;;;;;28.30;21.77;;;21.80;99.90;;;;;;4938064;29;20476;-74
2021/08/01 10:44:53;;;;;;;29.75;21.95;;;21.50;99.90;;;;;;4938568;29;20027;-74
2021/08/01 10:47:19;;;;;;;28.02;21.95;;;21.30;99.90;;;;;;4938419;29;20034;-77
2021/08/01 10:49:47;;;;;;;28.25;21.88;;;21.10;99.90;;;;;;4955277;29;20409;-74
2021/08/01 10:52:18;;;;;;;29.13;21.02;;;20.90;99.90;;;;;;4950479;29;20040;-78
2021/08/01 10:54:58;;;;;;;;;;;20.70;99.90;;;;;;4937230;29;20484;-77
2021/08/01 10:57:25;;;;;;;24.85;20.88;;;20.40;99.90;;;;;;4946249;29;19907;-82
2021/08/01 10:59:53;;;;;;;25.85;20.08;;;20.10;99.90;;;;;;4919325;29;20094;-83
2021/08/01 11:02:26;;;;;;;23.65;18.67;;;19.90;99.90;;;;;;4935213;29;20458;-79
2021/08/01 11:04:52;;;;;;;21.67;19.10;;;19.70;99.90;;;;;;4919395;29;20110;-77
2021/08/01 11:07:27;;;;;;;23.55;19.95;;;19.60;99.90;;;;;;4935918;29;20028;-76
2021/08/01 11:10:10;;;;;;;28.65;22.73;;;19.60;99.90;;;;;;4935084;29;20028;-82
2021/08/01 11:12:38;;;;;;;25.95;22.20;;;19.60;99.90;;;;;;4935251;29;20118;-77
2021/08/01 11:15:06;;;;;;;31.48;22.83;;;19.50;99.90;;;;;;4955651;29;20019;-75
2021/08/01 11:17:46;;;;;;;28.48;22.38;;;19.40;99.90;;;;;;4955299;29;20053;-86
2021/08/01 11:20:23;;;;;;;27.02;21.50;;;19.40;99.90;;;;;;4953121;28;20027;-75
2021/08/01 11:22:50;;;;;;;32.17;22.65;;;19.60;99.90;;;;;;4955725;29;20034;-77
2021/08/01 11:25:26;;;;;;;28.30;21.40;;;19.70;99.90;;;;;;4937687;29;20035;-78
2021/08/01 11:28:10;;;;;;;27.40;21.70;;;19.70;99.90;;;;;;4937761;29;20391;-77
2021/08/01 11:30:53;;;;;;;24.92;20.02;;;19.80;99.90;;;;;;4955187;29;20510;-84
2021/08/01 11:33:39;;;;;;;27.27;20.17;;;19.80;99.90;;;;;;4954775;29;20162;-86
2021/08/01 11:36:17;;;;;;;24.63;19.95;;;19.90;99.90;;;;;;4937906;29;20033;-83
2021/08/01 11:38:48;;;;;;;22.38;17.85;;;20.20;99.90;;;;;;4955088;29;20082;-82
2021/08/01 11:41:35;;;;;;;25.05;17.65;;;20.50;99.90;;;;;;4936737;29;20027;-82
2021/08/01 11:44:02;;;;;;;24.50;18.73;;;20.60;99.90;;;;;;4938042;29;20030;-82
2021/08/01 11:46:30;;;;;;;23.05;17.23;;;20.40;99.90;;;;;;4954399;29;20041;-83
2021/08/01 11:49:05;;;;;;;22.90;17.73;;;20.20;99.90;;;;;;4937577;29;20114;-87
2021/08/01 11:51:31;;;;;;;19.88;16.80;;;20.10;99.90;;;;;;4936173;29;20062;-85
2021/08/01 11:53:57;;;;;;;19.55;15.10;;;19.90;99.90;;;;;;4919759;29;20119;-89
2021/08/01 11:56:26;;;;;;;24.20;15.88;;;19.80;99.90;;;;;;4936623;29;20445;-74
2021/08/01 11:58:55;;;;;;;19.20;14.30;;;19.80;99.90;;;;;;4953112;29;20035;-74
2021/08/01 12:01:21;;;;;;;20.92;16.85;;;19.80;99.90;;;;;;4934027;29;20126;-73
2021/08/01 12:03:51;;;;;;;22.40;16.48;;;19.90;99.90;;;;;;4927782;29;20475;-85
2021/08/01 12:06:35;;;;;;;21.38;15.98;;;19.90;99.90;;;;;;4946770;28;20039;-74
2021/08/01 12:09:22;;;;;;;22.27;15.20;;;19.90;99.90;;;;;;4941214;29;20082;-72
2021/08/01 12:11:53;;;;;;;16.23;13.80;;;19.70;99.90;;;;;;4946539;28;20039;-74
2021/08/01 12:14:28;;;;;;;17.23;13.05;;;19.50;99.90;;;;;;4951402;29;20023;-71
2021/08/01 12:16:54;;;;;;;14.25;11.07;;;19.30;99.90;;;;;;4929033;29;20110;-73
2021/08/01 12:19:23;;;;;;;13.02;9.65;;;19.10;99.90;;;;;;4944616;29;20027;-74
2021/08/01 12:21:52;;;;;;;19.10;10.02;;;18.90;99.90;;;;;;4951295;29;20120;-76
2021/08/01 12:24:32;;;;;;;12.85;9.65;;;18.70;99.90;;;;;;4941580;29;20011;-76
2021/08/01 12:26:59;;;;;;;11.93;8.32;;;18.60;99.90;;;;;;4948368;29;20035;-73
2021/08/01 12:29:35;;;;;;;12.77;9.35;;;18.60;99.90;;;;;;4954092;29;20051;-75
2021/08/01 12:32:31;;;;;;;10.57;8.43;;;18.60;99.90;;;;;;4949114;29;20106;-75
2021/08/01 12:35:04;;;;;;;10.70;8.70;;;18.70;99.90;;;;;;4942271;29;20024;-74